sensor_id;sensor_type;location;lat;lon;timestamp;pressure;altitude;pressure_sealevel;temperature;humidity
21234;BME280;10774;42.178;26.578;2023-02-17T00:01:59;101017.94;;;2.58;100.00
21234;BME280;10774;42.178;26.578;2023-02-17T00:04:29;101039.91;;;2.63;100.00
21234;BME280;10774;42.178;26.578;2023-02-17T00:06:55;101039.38;;;2.37;100.00
21234;BME280;10774;42.178;26.578;2023-02-17T00:09:20;101048.81;;;2.58;100.00
21234;BME280;10774;42.178;26.578;2023-02-17T00:11:46;101038.97;;;2.68;100.00
21234;BME280;10774;42.178;26.578;2023-02-17T00:14:12;101025.63;;;2.75;100.00
21234;BME280;10774;42.178;26.578;2023-02-17T00:16:37;101036.66;;;3.05;100.00
21234;BME280;10774;42.178;26.578;2023-02-17T00:19:03;101011.81;;;3.10;100.00
21234;BME280;10774;42.178;26.578;2023-02-17T00:21:48;101038.28;;;3.13;100.00
21234;BME280;10774;42.178;26.578;2023-02-17T00:24:13;101033.88;;;3.14;100.00
21234;BME280;10774;42.178;26.578;2023-02-17T00:26:39;101013.59;;;3.11;100.00
21234;BME280;10774;42.178;26.578;2023-02-17T00:29:04;101037.31;;;3.19;100.00
21234;BME280;10774;42.178;26.578;2023-02-17T00:31:29;101018.19;;;2.99;100.00
21234;BME280;10774;42.178;26.578;2023-02-17T00:33:55;101024.19;;;3.11;100.00
21234;BME280;10774;42.178;26.578;2023-02-17T00:36:20;101031.88;;;3.28;100.00
21234;BME280;10774;42.178;26.578;2023-02-17T00:38:47;101017.03;;;3.17;100.00
21234;BME280;10774;42.178;26.578;2023-02-17T00:41:13;101017.84;;;3.20;100.00
21234;BME280;10774;42.178;26.578;2023-02-17T00:43:38;101016.53;;;2.92;100.00
21234;BME280;10774;42.178;26.578;2023-02-17T00:46:04;100999.59;;;3.02;100.00
21234;BME280;10774;42.178;26.578;2023-02-17T00:48:30;101003.13;;;3.02;100.00
21234;BME280;10774;42.178;26.578;2023-02-17T00:50:56;101005.28;;;2.76;100.00
21234;BME280;10774;42.178;26.578;2023-02-17T00:53:22;100995.81;;;2.58;100.00
21234;BME280;10774;42.178;26.578;2023-02-17T00:55:47;100981.69;;;2.59;100.00
21234;BME280;10774;42.178;26.578;2023-02-17T00:58:14;100965.50;;;2.77;100.00
21234;BME280;10774;42.178;26.578;2023-02-17T01:03:14;100997.03;;;2.96;100.00
21234;BME280;10774;42.178;26.578;2023-02-17T01:05:44;100989.25;;;2.85;100.00
21234;BME280;10774;42.178;26.578;2023-02-17T01:08:11;100947.97;;;2.67;100.00
21234;BME280;10774;42.178;26.578;2023-02-17T01:10:38;100985.53;;;2.95;100.00
21234;BME280;10774;42.178;26.578;2023-02-17T01:13:04;100978.50;;;2.93;100.00
21234;BME280;10774;42.178;26.578;2023-02-17T01:15:30;100944.53;;;2.62;100.00
21234;BME280;10774;42.178;26.578;2023-02-17T01:17:57;100937.72;;;2.46;100.00
21234;BME280;10774;42.178;26.578;2023-02-17T01:20:22;100949.75;;;2.67;100.00
21234;BME280;10774;42.178;26.578;2023-02-17T01:22:48;100959.44;;;2.69;100.00
21234;BME280;10774;42.178;26.578;2023-02-17T01:25:13;100955.00;;;2.71;100.00
21234;BME280;10774;42.178;26.578;2023-02-17T01:27:39;100954.81;;;2.82;100.00
21234;BME280;10774;42.178;26.578;2023-02-17T01:30:05;100961.59;;;3.00;100.00
21234;BME280;10774;42.178;26.578;2023-02-17T01:32:30;100948.06;;;2.61;100.00
21234;BME280;10774;42.178;26.578;2023-02-17T01:34:55;100951.34;;;2.78;100.00
21234;BME280;10774;42.178;26.578;2023-02-17T01:37:21;100947.75;;;2.82;100.00
21234;BME280;10774;42.178;26.578;2023-02-17T01:39:46;100936.81;;;2.48;100.00
21234;BME280;10774;42.178;26.578;2023-02-17T01:42:16;100949.84;;;2.60;100.00
21234;BME280;10774;42.178;26.578;2023-02-17T01:47:48;100944.09;;;2.88;100.00
21234;BME280;10774;42.178;26.578;2023-02-17T01:50:15;100932.03;;;2.70;100.00
21234;BME280;10774;42.178;26.578;2023-02-17T01:52:42;100934.66;;;2.10;100.00
21234;BME280;10774;42.178;26.578;2023-02-17T01:55:10;100926.38;;;1.68;100.00
21234;BME280;10774;42.178;26.578;2023-02-17T01:57:38;100913.91;;;1.79;100.00
21234;BME280;10774;42.178;26.578;2023-02-17T02:00:07;100925.59;;;2.26;100.00
21234;BME280;10774;42.178;26.578;2023-02-17T02:02:34;100910.09;;;2.02;100.00
21234;BME280;10774;42.178;26.578;2023-02-17T02:04:59;100918.72;;;2.15;100.00
21234;BME280;10774;42.178;26.578;2023-02-17T02:07:31;100913.25;;;2.28;100.00
21234;BME280;10774;42.178;26.578;2023-02-17T02:09:57;100909.81;;;2.20;100.00
21234;BME280;10774;42.178;26.578;2023-02-17T02:14:52;100921.88;;;2.41;100.00
21234;BME280;10774;42.178;26.578;2023-02-17T02:36:16;100911.63;;;2.18;100.00
21234;BME280;10774;42.178;26.578;2023-02-17T02:39:06;100908.88;;;2.24;100.00
21234;BME280;10774;42.178;26.578;2023-02-17T02:41:47;100906.91;;;2.39;100.00
21234;BME280;10774;42.178;26.578;2023-02-17T02:44:17;100877.13;;;2.23;100.00
21234;BME280;10774;42.178;26.578;2023-02-17T02:46:44;100893.88;;;2.23;100.00
21234;BME280;10774;42.178;26.578;2023-02-17T02:49:10;100904.16;;;2.45;100.00
21234;BME280;10774;42.178;26.578;2023-02-17T02:57:05;100920.56;;;2.11;100.00
21234;BME280;10774;42.178;26.578;2023-02-17T03:00:03;100917.63;;;2.29;100.00
21234;BME280;10774;42.178;26.578;2023-02-17T03:08:13;100926.97;;;1.92;100.00
21234;BME280;10774;42.178;26.578;2023-02-17T03:10:45;100919.88;;;1.94;100.00
21234;BME280;10774;42.178;26.578;2023-02-17T03:13:11;100924.50;;;1.79;100.00
21234;BME280;10774;42.178;26.578;2023-02-17T03:15:36;100907.78;;;1.76;100.00
21234;BME280;10774;42.178;26.578;2023-02-17T03:18:02;100904.88;;;1.96;100.00
21234;BME280;10774;42.178;26.578;2023-02-17T03:20:31;100922.31;;;2.09;100.00
21234;BME280;10774;42.178;26.578;2023-02-17T03:22:59;100924.16;;;2.04;100.00
21234;BME280;10774;42.178;26.578;2023-02-17T03:25:24;100917.09;;;2.06;100.00
21234;BME280;10774;42.178;26.578;2023-02-17T03:27:50;100919.75;;;2.06;100.00
21234;BME280;10774;42.178;26.578;2023-02-17T03:30:15;100912.69;;;2.03;100.00
21234;BME280;10774;42.178;26.578;2023-02-17T03:32:41;100929.34;;;2.13;100.00
21234;BME280;10774;42.178;26.578;2023-02-17T03:35:07;100922.38;;;2.04;100.00
21234;BME280;10774;42.178;26.578;2023-02-17T03:37:32;100918.63;;;2.22;100.00
21234;BME280;10774;42.178;26.578;2023-02-17T03:39:58;100926.50;;;2.25;100.00
21234;BME280;10774;42.178;26.578;2023-02-17T03:42:23;100931.94;;;2.16;100.00
21234;BME280;10774;42.178;26.578;2023-02-17T03:44:49;100917.03;;;2.09;100.00
21234;BME280;10774;42.178;26.578;2023-02-17T03:47:14;100917.22;;;1.97;100.00
21234;BME280;10774;42.178;26.578;2023-02-17T03:49:40;100906.69;;;1.91;100.00
21234;BME280;10774;42.178;26.578;2023-02-17T03:52:05;100924.25;;;1.98;100.00
21234;BME280;10774;42.178;26.578;2023-02-17T03:54:31;100916.72;;;1.66;100.00
21234;BME280;10774;42.178;26.578;2023-02-17T03:56:56;100920.16;;;1.72;100.00
21234;BME280;10774;42.178;26.578;2023-02-17T03:59:23;100921.03;;;1.74;100.00
21234;BME280;10774;42.178;26.578;2023-02-17T04:01:48;100925.28;;;1.84;100.00
21234;BME280;10774;42.178;26.578;2023-02-17T04:04:14;100920.06;;;1.81;100.00
21234;BME280;10774;42.178;26.578;2023-02-17T04:06:39;100917.00;;;1.43;100.00
21234;BME280;10774;42.178;26.578;2023-02-17T04:09:05;100912.78;;;1.20;100.00
21234;BME280;10774;42.178;26.578;2023-02-17T04:11:30;100919.88;;;1.18;100.00
21234;BME280;10774;42.178;26.578;2023-02-17T04:13:56;100917.03;;;1.37;100.00
21234;BME280;10774;42.178;26.578;2023-02-17T04:16:21;100941.09;;;1.12;100.00
21234;BME280;10774;42.178;26.578;2023-02-17T04:18:46;100922.56;;;1.17;100.00
21234;BME280;10774;42.178;26.578;2023-02-17T04:21:12;100910.81;;;1.44;100.00
21234;BME280;10774;42.178;26.578;2023-02-17T04:23:37;100912.50;;;1.49;100.00
21234;BME280;10774;42.178;26.578;2023-02-17T04:26:04;100915.09;;;1.54;100.00
21234;BME280;10774;42.178;26.578;2023-02-17T04:28:30;100942.44;;;1.54;100.00
21234;BME280;10774;42.178;26.578;2023-02-17T04:30:57;100947.78;;;1.50;100.00
21234;BME280;10774;42.178;26.578;2023-02-17T04:33:23;100930.91;;;1.57;100.00
21234;BME280;10774;42.178;26.578;2023-02-17T04:35:49;100920.38;;;1.52;100.00
21234;BME280;10774;42.178;26.578;2023-02-17T04:38:14;100914.72;;;1.06;100.00
21234;BME280;10774;42.178;26.578;2023-02-17T04:40:40;100916.94;;;1.46;100.00
21234;BME280;10774;42.178;26.578;2023-02-17T04:43:06;100911.31;;;0.92;100.00
21234;BME280;10774;42.178;26.578;2023-02-17T04:45:33;100916.53;;;1.01;100.00
21234;BME280;10774;42.178;26.578;2023-02-17T04:47:59;100923.69;;;0.90;100.00
21234;BME280;10774;42.178;26.578;2023-02-17T04:50:24;100934.00;;;1.17;100.00
21234;BME280;10774;42.178;26.578;2023-02-17T04:52:50;100939.81;;;1.50;100.00
21234;BME280;10774;42.178;26.578;2023-02-17T04:55:15;100938.91;;;1.54;100.00
21234;BME280;10774;42.178;26.578;2023-02-17T04:57:41;100936.34;;;1.45;100.00
21234;BME280;10774;42.178;26.578;2023-02-17T05:00:08;100935.75;;;1.15;100.00
21234;BME280;10774;42.178;26.578;2023-02-17T05:02:33;100928.81;;;1.05;100.00
21234;BME280;10774;42.178;26.578;2023-02-17T05:04:59;100928.69;;;1.16;100.00
21234;BME280;10774;42.178;26.578;2023-02-17T05:07:24;100912.25;;;0.83;100.00
21234;BME280;10774;42.178;26.578;2023-02-17T05:09:50;100928.13;;;0.85;100.00
21234;BME280;10774;42.178;26.578;2023-02-17T05:12:15;100914.09;;;0.73;100.00
21234;BME280;10774;42.178;26.578;2023-02-17T05:14:40;100930.97;;;0.60;100.00
21234;BME280;10774;42.178;26.578;2023-02-17T05:17:06;100918.97;;;0.07;100.00
21234;BME280;10774;42.178;26.578;2023-02-17T05:19:31;100919.84;;;0.08;100.00
21234;BME280;10774;42.178;26.578;2023-02-17T05:21:57;100923.47;;;-0.09;100.00
21234;BME280;10774;42.178;26.578;2023-02-17T05:24:22;100957.13;;;-0.99;100.00
21234;BME280;10774;42.178;26.578;2023-02-17T05:26:48;100935.13;;;-1.73;100.00
21234;BME280;10774;42.178;26.578;2023-02-17T05:29:13;100963.25;;;-1.46;100.00
21234;BME280;10774;42.178;26.578;2023-02-17T05:31:38;100937.72;;;-1.89;100.00
21234;BME280;10774;42.178;26.578;2023-02-17T05:34:04;100964.09;;;-1.49;100.00
21234;BME280;10774;42.178;26.578;2023-02-17T05:36:29;100950.91;;;-1.64;100.00
21234;BME280;10774;42.178;26.578;2023-02-17T05:38:55;100976.41;;;-0.87;100.00
21234;BME280;10774;42.178;26.578;2023-02-17T05:41:20;100977.25;;;-0.54;100.00
21234;BME280;10774;42.178;26.578;2023-02-17T05:43:46;100971.84;;;-0.13;100.00
21234;BME280;10774;42.178;26.578;2023-02-17T05:46:12;100985.88;;;0.03;100.00
21234;BME280;10774;42.178;26.578;2023-02-17T05:48:38;100966.50;;;0.07;100.00
21234;BME280;10774;42.178;26.578;2023-02-17T05:51:04;100982.09;;;0.47;100.00
21234;BME280;10774;42.178;26.578;2023-02-17T05:53:29;100970.75;;;0.31;100.00
21234;BME280;10774;42.178;26.578;2023-02-17T05:55:55;100964.59;;;0.34;100.00
21234;BME280;10774;42.178;26.578;2023-02-17T05:58:20;100981.13;;;0.66;100.00
21234;BME280;10774;42.178;26.578;2023-02-17T06:00:46;100970.44;;;0.82;100.00
21234;BME280;10774;42.178;26.578;2023-02-17T06:03:13;100976.41;;;1.05;100.00
21234;BME280;10774;42.178;26.578;2023-02-17T06:05:38;100986.81;;;1.23;100.00
21234;BME280;10774;42.178;26.578;2023-02-17T06:08:05;100996.44;;;1.34;100.00
21234;BME280;10774;42.178;26.578;2023-02-17T06:10:31;100995.78;;;1.07;100.00
21234;BME280;10774;42.178;26.578;2023-02-17T06:12:57;100998.41;;;1.09;100.00
21234;BME280;10774;42.178;26.578;2023-02-17T06:15:22;100985.16;;;1.10;99.89
21234;BME280;10774;42.178;26.578;2023-02-17T06:17:47;101007.94;;;1.29;97.85
21234;BME280;10774;42.178;26.578;2023-02-17T06:20:13;101002.59;;;1.31;98.68
21234;BME280;10774;42.178;26.578;2023-02-17T06:22:40;101003.50;;;1.33;98.71
21234;BME280;10774;42.178;26.578;2023-02-17T06:25:06;100987.59;;;1.38;98.49
21234;BME280;10774;42.178;26.578;2023-02-17T06:27:31;101010.44;;;1.45;98.06
21234;BME280;10774;42.178;26.578;2023-02-17T06:29:57;100989.34;;;1.39;97.93
21234;BME280;10774;42.178;26.578;2023-02-17T06:32:22;100978.44;;;1.66;97.75
21234;BME280;10774;42.178;26.578;2023-02-17T06:34:47;100999.94;;;2.14;96.79
21234;BME280;10774;42.178;26.578;2023-02-17T06:37:13;100982.19;;;2.24;95.39
21234;BME280;10774;42.178;26.578;2023-02-17T06:39:38;100992.31;;;2.56;94.61
21234;BME280;10774;42.178;26.578;2023-02-17T06:42:04;100991.97;;;2.79;94.20
21234;BME280;10774;42.178;26.578;2023-02-17T06:44:29;100966.91;;;3.00;93.07
21234;BME280;10774;42.178;26.578;2023-02-17T06:46:55;100980.41;;;3.38;92.09
21234;BME280;10774;42.178;26.578;2023-02-17T06:49:21;100979.88;;;3.66;91.00
21234;BME280;10774;42.178;26.578;2023-02-17T06:51:46;100979.47;;;3.87;92.19
21234;BME280;10774;42.178;26.578;2023-02-17T06:54:11;100961.25;;;4.11;94.00
21234;BME280;10774;42.178;26.578;2023-02-17T06:56:37;100961.16;;;4.17;95.80
21234;BME280;10774;42.178;26.578;2023-02-17T06:59:03;100981.66;;;4.51;96.11
21234;BME280;10774;42.178;26.578;2023-02-17T07:01:28;100984.88;;;4.65;96.69
21234;BME280;10774;42.178;26.578;2023-02-17T07:03:54;100967.97;;;4.67;96.25
21234;BME280;10774;42.178;26.578;2023-02-17T07:06:21;100983.47;;;4.87;96.32
21234;BME280;10774;42.178;26.578;2023-02-17T07:08:47;100979.69;;;4.97;95.50
21234;BME280;10774;42.178;26.578;2023-02-17T07:11:13;100978.44;;;5.11;96.01
21234;BME280;10774;42.178;26.578;2023-02-17T07:13:39;100990.56;;;5.24;95.70
21234;BME280;10774;42.178;26.578;2023-02-17T07:16:06;100972.44;;;5.38;93.88
21234;BME280;10774;42.178;26.578;2023-02-17T07:18:32;100977.47;;;5.49;94.14
21234;BME280;10774;42.178;26.578;2023-02-17T07:20:57;100968.69;;;5.45;93.31
21234;BME280;10774;42.178;26.578;2023-02-17T07:23:23;100948.31;;;5.43;93.61
21234;BME280;10774;42.178;26.578;2023-02-17T07:25:48;100967.25;;;5.66;93.71
21234;BME280;10774;42.178;26.578;2023-02-17T07:28:14;100962.78;;;5.67;93.64
21234;BME280;10774;42.178;26.578;2023-02-17T07:30:41;100961.25;;;5.91;93.12
21234;BME280;10774;42.178;26.578;2023-02-17T07:33:07;100957.41;;;6.01;92.68
21234;BME280;10774;42.178;26.578;2023-02-17T07:35:33;100964.72;;;6.24;92.71
21234;BME280;10774;42.178;26.578;2023-02-17T07:37:59;100942.94;;;6.10;93.52
21234;BME280;10774;42.178;26.578;2023-02-17T07:40:26;100951.72;;;6.13;94.43
21234;BME280;10774;42.178;26.578;2023-02-17T07:42:52;100962.25;;;6.18;94.90
21234;BME280;10774;42.178;26.578;2023-02-17T07:45:17;100965.53;;;6.27;95.45
21234;BME280;10774;42.178;26.578;2023-02-17T07:47:43;100952.41;;;6.20;95.41
21234;BME280;10774;42.178;26.578;2023-02-17T07:50:09;100963.97;;;6.48;94.53
21234;BME280;10774;42.178;26.578;2023-02-17T07:52:34;100966.72;;;6.75;94.17
21234;BME280;10774;42.178;26.578;2023-02-17T07:55:00;100969.72;;;6.92;94.08
21234;BME280;10774;42.178;26.578;2023-02-17T07:57:26;100954.47;;;6.96;93.96
21234;BME280;10774;42.178;26.578;2023-02-17T07:59:51;100959.50;;;7.05;94.76
21234;BME280;10774;42.178;26.578;2023-02-17T08:02:17;100954.94;;;7.08;94.25
21234;BME280;10774;42.178;26.578;2023-02-17T08:04:43;100957.81;;;7.29;94.68
21234;BME280;10774;42.178;26.578;2023-02-17T08:07:08;100958.81;;;7.51;94.52
21234;BME280;10774;42.178;26.578;2023-02-17T08:09:34;100941.66;;;7.32;95.44
21234;BME280;10774;42.178;26.578;2023-02-17T08:12:19;100950.69;;;7.54;95.38
21234;BME280;10774;42.178;26.578;2023-02-17T08:15:08;100961.66;;;7.72;95.40
21234;BME280;10774;42.178;26.578;2023-02-17T08:17:34;100949.16;;;7.72;95.20
21234;BME280;10774;42.178;26.578;2023-02-17T08:19:59;100953.78;;;7.92;94.31
21234;BME280;10774;42.178;26.578;2023-02-17T08:22:25;100954.72;;;8.15;93.79
21234;BME280;10774;42.178;26.578;2023-02-17T08:24:50;100962.97;;;8.32;94.93
21234;BME280;10774;42.178;26.578;2023-02-17T08:27:17;100972.13;;;8.50;94.83
21234;BME280;10774;42.178;26.578;2023-02-17T08:29:43;100964.81;;;8.55;94.41
21234;BME280;10774;42.178;26.578;2023-02-17T08:32:09;100957.06;;;8.69;93.65
21234;BME280;10774;42.178;26.578;2023-02-17T08:34:34;100971.16;;;8.74;92.37
21234;BME280;10774;42.178;26.578;2023-02-17T08:37:01;100978.50;;;8.91;91.18
21234;BME280;10774;42.178;26.578;2023-02-17T08:39:28;100973.03;;;8.94;90.50
21234;BME280;10774;42.178;26.578;2023-02-17T08:41:54;100951.50;;;8.97;90.22
21234;BME280;10774;42.178;26.578;2023-02-17T08:44:20;100974.72;;;9.19;89.02
21234;BME280;10774;42.178;26.578;2023-02-17T08:46:47;100972.03;;;9.19;87.15
21234;BME280;10774;42.178;26.578;2023-02-17T08:49:15;100967.38;;;9.44;86.79
21234;BME280;10774;42.178;26.578;2023-02-17T08:51:41;100966.75;;;9.58;84.27
21234;BME280;10774;42.178;26.578;2023-02-17T08:54:07;100973.66;;;9.63;82.53
21234;BME280;10774;42.178;26.578;2023-02-17T08:56:35;100959.78;;;9.54;81.43
21234;BME280;10774;42.178;26.578;2023-02-17T08:59:02;100958.16;;;9.70;81.75
21234;BME280;10774;42.178;26.578;2023-02-17T09:01:28;100968.22;;;9.85;81.33
21234;BME280;10774;42.178;26.578;2023-02-17T09:03:55;100941.88;;;9.95;82.27
21234;BME280;10774;42.178;26.578;2023-02-17T09:06:21;100960.50;;;9.98;81.00
21234;BME280;10774;42.178;26.578;2023-02-17T09:08:47;100952.59;;;9.95;81.60
21234;BME280;10774;42.178;26.578;2023-02-17T09:11:14;100938.38;;;9.93;80.76
21234;BME280;10774;42.178;26.578;2023-02-17T09:13:43;100920.13;;;10.01;80.70
21234;BME280;10774;42.178;26.578;2023-02-17T09:16:09;100924.38;;;10.26;80.06
21234;BME280;10774;42.178;26.578;2023-02-17T09:18:34;100948.91;;;10.37;77.82
21234;BME280;10774;42.178;26.578;2023-02-17T09:21:11;100939.78;;;10.41;76.92
21234;BME280;10774;42.178;26.578;2023-02-17T09:23:38;100942.22;;;10.64;76.00
21234;BME280;10774;42.178;26.578;2023-02-17T09:26:06;100935.41;;;10.57;73.67
21234;BME280;10774;42.178;26.578;2023-02-17T09:28:32;100944.47;;;10.73;74.51
21234;BME280;10774;42.178;26.578;2023-02-17T09:30:58;100933.25;;;10.65;72.00
21234;BME280;10774;42.178;26.578;2023-02-17T09:33:23;100940.16;;;10.69;71.35
21234;BME280;10774;42.178;26.578;2023-02-17T09:35:49;100939.13;;;10.91;70.33
21234;BME280;10774;42.178;26.578;2023-02-17T09:38:15;100928.47;;;11.07;69.55
21234;BME280;10774;42.178;26.578;2023-02-17T09:40:47;100948.88;;;11.28;70.18
21234;BME280;10774;42.178;26.578;2023-02-17T09:43:15;100940.28;;;11.39;69.26
21234;BME280;10774;42.178;26.578;2023-02-17T09:45:55;100928.72;;;11.54;66.46
21234;BME280;10774;42.178;26.578;2023-02-17T09:48:26;100910.25;;;11.65;63.47
21234;BME280;10774;42.178;26.578;2023-02-17T09:50:55;100911.97;;;11.66;63.25
21234;BME280;10774;42.178;26.578;2023-02-17T09:53:42;100942.34;;;11.68;63.67
21234;BME280;10774;42.178;26.578;2023-02-17T09:56:13;100927.16;;;11.85;62.30
21234;BME280;10774;42.178;26.578;2023-02-17T09:58:55;100914.16;;;11.93;62.33
21234;BME280;10774;42.178;26.578;2023-02-17T10:01:28;100913.41;;;12.07;60.39
21234;BME280;10774;42.178;26.578;2023-02-17T10:04:06;100886.94;;;12.15;60.26
21234;BME280;10774;42.178;26.578;2023-02-17T10:06:35;100904.00;;;12.47;59.16
21234;BME280;10774;42.178;26.578;2023-02-17T10:09:24;100909.22;;;12.50;58.62
21234;BME280;10774;42.178;26.578;2023-02-17T10:17:12;100876.69;;;12.69;55.91
21234;BME280;10774;42.178;26.578;2023-02-17T10:19:46;100894.03;;;12.95;55.52
21234;BME280;10774;42.178;26.578;2023-02-17T10:22:16;100895.72;;;13.12;54.62
21234;BME280;10774;42.178;26.578;2023-02-17T10:24:42;100895.41;;;13.02;54.53
21234;BME280;10774;42.178;26.578;2023-02-17T10:32:59;100874.66;;;13.34;52.43
21234;BME280;10774;42.178;26.578;2023-02-17T10:38:37;100872.84;;;13.49;53.01
21234;BME280;10774;42.178;26.578;2023-02-17T10:41:09;100854.66;;;13.67;52.23
21234;BME280;10774;42.178;26.578;2023-02-17T10:43:37;100852.03;;;13.65;51.67
21234;BME280;10774;42.178;26.578;2023-02-17T10:46:05;100836.25;;;13.88;50.93
21234;BME280;10774;42.178;26.578;2023-02-17T10:48:37;100821.22;;;13.98;51.14
21234;BME280;10774;42.178;26.578;2023-02-17T10:51:04;100840.69;;;14.03;50.79
21234;BME280;10774;42.178;26.578;2023-02-17T10:53:35;100822.94;;;13.99;50.45
21234;BME280;10774;42.178;26.578;2023-02-17T10:58:54;100830.19;;;14.39;50.90
21234;BME280;10774;42.178;26.578;2023-02-17T11:01:21;100821.34;;;14.23;50.34
21234;BME280;10774;42.178;26.578;2023-02-17T11:04:05;100827.38;;;14.55;50.24
21234;BME280;10774;42.178;26.578;2023-02-17T11:06:35;100822.84;;;14.42;49.50
21234;BME280;10774;42.178;26.578;2023-02-17T11:09:06;100818.00;;;14.47;50.19
21234;BME280;10774;42.178;26.578;2023-02-17T11:11:52;100816.94;;;14.49;49.16
21234;BME280;10774;42.178;26.578;2023-02-17T11:14:28;100789.63;;;14.54;48.25
21234;BME280;10774;42.178;26.578;2023-02-17T11:17:02;100791.53;;;14.66;48.03
21234;BME280;10774;42.178;26.578;2023-02-17T11:19:33;100786.56;;;14.73;46.26
21234;BME280;10774;42.178;26.578;2023-02-17T11:22:02;100784.44;;;14.90;46.87
21234;BME280;10774;42.178;26.578;2023-02-17T11:24:30;100801.44;;;15.05;46.86
21234;BME280;10774;42.178;26.578;2023-02-17T11:26:58;100782.22;;;15.10;46.14
21234;BME280;10774;42.178;26.578;2023-02-17T11:29:24;100787.84;;;15.20;45.32
21234;BME280;10774;42.178;26.578;2023-02-17T11:32:10;100776.47;;;15.14;45.67
21234;BME280;10774;42.178;26.578;2023-02-17T11:34:39;100783.41;;;15.31;45.71
21234;BME280;10774;42.178;26.578;2023-02-17T11:39:39;100772.59;;;15.57;43.58
21234;BME280;10774;42.178;26.578;2023-02-17T11:42:15;100771.19;;;15.64;42.90
21234;BME280;10774;42.178;26.578;2023-02-17T11:44:41;100750.31;;;15.66;42.78
21234;BME280;10774;42.178;26.578;2023-02-17T11:52:39;100762.41;;;15.73;42.53
21234;BME280;10774;42.178;26.578;2023-02-17T11:55:20;100758.81;;;15.85;41.84
21234;BME280;10774;42.178;26.578;2023-02-17T11:58:36;100755.03;;;15.88;42.05
21234;BME280;10774;42.178;26.578;2023-02-17T12:01:18;100761.31;;;16.12;41.10
21234;BME280;10774;42.178;26.578;2023-02-17T12:09:12;100750.34;;;16.51;40.98
21234;BME280;10774;42.178;26.578;2023-02-17T12:11:47;100739.25;;;16.78;39.98
21234;BME280;10774;42.178;26.578;2023-02-17T12:22:40;100716.94;;;16.74;38.96
21234;BME280;10774;42.178;26.578;2023-02-17T12:28:04;100714.28;;;17.08;36.20
21234;BME280;10774;42.178;26.578;2023-02-17T12:36:08;100706.06;;;17.32;33.14
21234;BME280;10774;42.178;26.578;2023-02-17T12:39:01;100697.06;;;17.20;32.67
21234;BME280;10774;42.178;26.578;2023-02-17T12:41:33;100672.72;;;17.07;33.23
21234;BME280;10774;42.178;26.578;2023-02-17T12:44:17;100698.25;;;17.61;32.80
21234;BME280;10774;42.178;26.578;2023-02-17T12:46:48;100698.03;;;17.75;32.19
21234;BME280;10774;42.178;26.578;2023-02-17T12:49:26;100698.28;;;17.72;32.66
21234;BME280;10774;42.178;26.578;2023-02-17T12:51:57;100692.94;;;18.04;31.81
21234;BME280;10774;42.178;26.578;2023-02-17T12:54:27;100699.44;;;18.13;31.70
21234;BME280;10774;42.178;26.578;2023-02-17T12:57:22;100697.84;;;18.10;30.85
21234;BME280;10774;42.178;26.578;2023-02-17T12:59:50;100686.16;;;18.31;30.46
21234;BME280;10774;42.178;26.578;2023-02-17T13:02:19;100696.25;;;18.61;30.01
21234;BME280;10774;42.178;26.578;2023-02-17T13:04:49;100672.50;;;18.74;29.92
21234;BME280;10774;42.178;26.578;2023-02-17T13:10:34;100684.41;;;18.09;31.07
21234;BME280;10774;42.178;26.578;2023-02-17T13:13:03;100680.84;;;18.29;31.85
21234;BME280;10774;42.178;26.578;2023-02-17T13:15:36;100665.09;;;18.65;31.22
21234;BME280;10774;42.178;26.578;2023-02-17T13:18:10;100674.75;;;18.69;31.08
21234;BME280;10774;42.178;26.578;2023-02-17T13:20:50;100684.13;;;18.65;29.85
21234;BME280;10774;42.178;26.578;2023-02-17T13:23:33;100682.78;;;18.91;30.17
21234;BME280;10774;42.178;26.578;2023-02-17T13:28:38;100672.84;;;19.32;30.04
21234;BME280;10774;42.178;26.578;2023-02-17T13:31:25;100671.63;;;19.55;29.26
21234;BME280;10774;42.178;26.578;2023-02-17T13:33:53;100685.91;;;19.69;29.04
21234;BME280;10774;42.178;26.578;2023-02-17T13:39:05;100682.25;;;19.58;27.27
21234;BME280;10774;42.178;26.578;2023-02-17T13:41:47;100681.78;;;19.84;27.07
21234;BME280;10774;42.178;26.578;2023-02-17T13:44:37;100673.75;;;19.92;27.08
21234;BME280;10774;42.178;26.578;2023-02-17T13:47:23;100673.94;;;20.00;27.30
21234;BME280;10774;42.178;26.578;2023-02-17T13:49:53;100668.06;;;20.05;26.96
21234;BME280;10774;42.178;26.578;2023-02-17T13:52:23;100673.13;;;19.69;27.55
21234;BME280;10774;42.178;26.578;2023-02-17T13:54:57;100669.16;;;19.93;27.78
21234;BME280;10774;42.178;26.578;2023-02-17T13:57:31;100661.75;;;20.24;26.81
21234;BME280;10774;42.178;26.578;2023-02-17T14:00:24;100659.75;;;20.26;26.57
21234;BME280;10774;42.178;26.578;2023-02-17T14:02:53;100673.78;;;20.02;26.70
21234;BME280;10774;42.178;26.578;2023-02-17T14:05:20;100668.06;;;20.34;26.27
21234;BME280;10774;42.178;26.578;2023-02-17T14:07:48;100664.66;;;20.51;25.79
21234;BME280;10774;42.178;26.578;2023-02-17T14:10:19;100653.28;;;20.36;25.95
21234;BME280;10774;42.178;26.578;2023-02-17T14:12:45;100660.03;;;20.23;26.81
21234;BME280;10774;42.178;26.578;2023-02-17T14:15:22;100660.31;;;20.39;26.82
21234;BME280;10774;42.178;26.578;2023-02-17T14:17:48;100649.84;;;20.63;26.26
21234;BME280;10774;42.178;26.578;2023-02-17T14:20:45;100657.88;;;20.75;26.19
21234;BME280;10774;42.178;26.578;2023-02-17T14:23:12;100663.50;;;20.63;25.38
21234;BME280;10774;42.178;26.578;2023-02-17T14:25:43;100662.97;;;19.81;25.88